createdAt,value
2018-11-26T00:01:31.054Z,94886.14
2018-11-26T00:04:01.583Z,94886.50
2018-11-26T00:06:37.245Z,94885.35
2018-11-26T00:09:10.721Z,94883.27
2018-11-26T00:11:41.698Z,94882.25
2018-11-26T00:14:17.195Z,94885.56
2018-11-26T00:16:51.627Z,94874.52
2018-11-26T00:19:29.575Z,94875.30
2018-11-26T00:21:59.745Z,94869.20
2018-11-26T00:24:32.120Z,94873.01
2018-11-26T00:27:04.263Z,94868.51
2018-11-26T00:29:33.903Z,94869.89
2018-11-26T00:32:04.953Z,94867.48
2018-11-26T00:34:36.111Z,94866.78
2018-11-26T00:37:08.173Z,94866.43
2018-11-26T00:39:39.045Z,94863.56
2018-11-26T00:42:10.032Z,94858.48
2018-11-26T00:44:42.336Z,94860.91
2018-11-26T00:47:13.115Z,94860.53
2018-11-26T00:49:43.172Z,94864.34
2018-11-26T00:52:13.058Z,94862.41
2018-11-26T00:54:44.263Z,94862.29
2018-11-26T00:57:13.632Z,94855.59
2018-11-26T00:59:44.925Z,94863.45
2018-11-26T01:02:17.965Z,94859.28
2018-11-26T01:04:48.039Z,94862.05
2018-11-26T01:07:19.257Z,94857.44
2018-11-26T01:09:50.036Z,94854.69
2018-11-26T01:12:20.052Z,94857.31
2018-11-26T01:14:50.184Z,94863.45
2018-11-26T01:17:21.671Z,94859.64
2018-11-26T01:19:51.237Z,94859.97
2018-11-26T01:22:21.108Z,94849.23
2018-11-26T01:24:52.212Z,94854.09
2018-11-26T01:27:22.136Z,94847.30
2018-11-26T01:29:53.981Z,94846.61
2018-11-26T01:32:26.063Z,94843.81
2018-11-26T01:34:57.207Z,94835.88
2018-11-26T01:37:29.905Z,94834.72
2018-11-26T01:40:00.381Z,94841.28
2018-11-26T01:42:30.367Z,94840.37
2018-11-26T01:45:01.296Z,94837.84
2018-11-26T01:47:32.349Z,94831.95
2018-11-26T01:50:02.307Z,94832.31
2018-11-26T01:52:32.393Z,94827.69
2018-11-26T01:55:03.400Z,94828.71
2018-11-26T01:57:33.319Z,94826.75
2018-11-26T02:00:04.408Z,94824.00
2018-11-26T02:02:36.279Z,94825.72
2018-11-26T02:05:10.303Z,94820.65
2018-11-26T02:07:43.393Z,94813.85
2018-11-26T02:10:14.636Z,94813.16
2018-11-26T02:12:45.485Z,94809.59
2018-11-26T02:15:42.707Z,94805.42
2018-11-26T02:18:12.417Z,94799.20
2018-11-26T02:20:42.275Z,94795.52
2018-11-26T02:23:16.519Z,94797.69
2018-11-26T02:25:49.719Z,94801.50
2018-11-26T02:28:19.593Z,94798.51
2018-11-26T02:30:49.497Z,94799.20
2018-11-26T02:33:19.543Z,94796.79
2018-11-26T02:35:50.463Z,94793.89
2018-11-26T02:38:20.358Z,94793.31
2018-11-26T02:40:50.448Z,94789.98
2018-11-26T02:43:22.403Z,94793.43
2018-11-26T02:45:54.567Z,94792.73
2018-11-26T02:48:24.459Z,94793.22
2018-11-26T02:51:01.240Z,94799.19
2018-11-26T02:53:31.512Z,94791.46
2018-11-26T02:56:01.625Z,94783.86
2018-11-26T02:58:32.276Z,94784.67
2018-11-26T03:01:03.127Z,94774.41
2018-11-26T03:03:32.683Z,94779.14
2018-11-26T03:06:03.544Z,94777.42
2018-11-26T03:08:33.672Z,94774.08
2018-11-26T03:11:04.527Z,94775.69
2018-11-26T03:13:37.849Z,94779.37
2018-11-26T03:16:07.731Z,94771.98
2018-11-26T03:18:39.072Z,94772.44
2018-11-26T03:21:08.799Z,94776.94
2018-11-26T03:23:39.788Z,94774.31
2018-11-26T03:26:09.708Z,94779.38
2018-11-26T03:28:39.766Z,94779.50
2018-11-26T03:31:10.691Z,94780.53
2018-11-26T03:33:40.631Z,94778.33
2018-11-26T03:36:11.801Z,94776.48
2018-11-26T03:38:54.532Z,94777.30
2018-11-26T03:41:24.805Z,94776.15
2018-11-26T03:43:54.698Z,94779.72
2018-11-26T03:46:30.787Z,94776.25
2018-11-26T03:49:01.924Z,94776.27
2018-11-26T03:51:31.820Z,94775.69
2018-11-26T03:54:02.759Z,94781.68
2018-11-26T03:56:32.697Z,94777.05
2018-11-26T03:59:06.664Z,94774.30
2018-11-26T04:01:42.931Z,94775.78
2018-11-26T04:04:12.831Z,94771.53
2018-11-26T04:06:43.020Z,94768.19
2018-11-26T04:09:13.327Z,94766.70
2018-11-26T04:11:43.820Z,94758.49
2018-11-26T04:14:13.483Z,94757.22
2018-11-26T04:16:47.787Z,94754.80
2018-11-26T04:19:17.860Z,94748.83
2018-11-26T04:21:48.013Z,94747.08
2018-11-26T04:24:19.015Z,94748.47
2018-11-26T04:26:49.052Z,94750.79
2018-11-26T04:29:18.992Z,94750.79
2018-11-26T04:31:50.744Z,94743.27
2018-11-26T04:34:24.437Z,94744.78
2018-11-26T04:36:56.152Z,94746.05
2018-11-26T04:39:30.901Z,94751.22
2018-11-26T04:42:03.085Z,94745.57
2018-11-26T04:44:33.799Z,94749.86
2018-11-26T04:47:07.141Z,94744.55
2018-11-26T04:49:37.156Z,94743.52
2018-11-26T04:52:08.259Z,94743.52
2018-11-26T04:54:38.051Z,94737.98
2018-11-26T04:57:08.140Z,94745.94
2018-11-26T04:59:39.059Z,94752.27
2018-11-26T05:02:09.953Z,94749.28
2018-11-26T05:04:44.339Z,94750.55
2018-11-26T05:07:13.760Z,94755.84
2018-11-26T05:09:45.256Z,94747.45
2018-11-26T05:12:17.169Z,94750.19
2018-11-26T05:14:46.537Z,94749.28
2018-11-26T05:17:17.387Z,94743.52
2018-11-26T05:19:49.066Z,94741.67
2018-11-26T05:22:22.965Z,94734.19
2018-11-26T05:25:01.561Z,94736.81
2018-11-26T05:27:34.382Z,94742.70
2018-11-26T05:30:04.840Z,94741.10
2018-11-26T05:32:34.405Z,94740.98
2018-11-26T05:35:06.578Z,94738.89
2018-11-26T05:37:38.350Z,94743.16
2018-11-26T05:40:14.391Z,94739.02
2018-11-26T05:42:45.345Z,94739.14
2018-11-26T05:45:17.715Z,94736.15
2018-11-26T05:47:49.431Z,94744.55
2018-11-26T05:50:20.343Z,94735.21
2018-11-26T05:52:52.483Z,94737.05
2018-11-26T05:55:23.448Z,94737.75
2018-11-26T05:57:53.567Z,94736.03
2018-11-26T06:00:29.488Z,94734.30
2018-11-26T06:03:00.420Z,94737.41
2018-11-26T06:05:31.051Z,94737.53
2018-11-26T06:08:01.478Z,94734.52
2018-11-26T06:10:32.047Z,94736.15
2018-11-26T06:13:03.096Z,94741.09
2018-11-26T06:15:32.476Z,94731.41
2018-11-26T06:18:06.371Z,94738.56
2018-11-26T06:20:37.391Z,94736.72
2018-11-26T06:23:07.869Z,94733.38
2018-11-26T06:25:37.609Z,94739.70
2018-11-26T06:28:07.669Z,94741.22
2018-11-26T06:30:38.406Z,94741.22
2018-11-26T06:33:09.624Z,94746.74
2018-11-26T06:35:42.561Z,94748.59
2018-11-26T06:38:13.505Z,94751.24
2018-11-26T06:40:45.443Z,94753.90
2018-11-26T06:43:17.631Z,94752.51
2018-11-26T06:45:50.000Z,94756.89
2018-11-26T06:48:20.612Z,94756.31
2018-11-26T06:50:52.892Z,94761.86
2018-11-26T06:53:24.228Z,94762.89
2018-11-26T06:55:53.640Z,94767.63
2018-11-26T06:58:26.572Z,94762.31
2018-11-26T07:00:57.596Z,94771.43
2018-11-26T07:03:27.712Z,94764.03
2018-11-26T07:05:57.923Z,94766.94
2018-11-26T07:08:28.800Z,94768.98
2018-11-26T07:10:58.835Z,94772.45
2018-11-26T07:13:28.871Z,94769.59
2018-11-26T07:15:59.136Z,94777.41
2018-11-26T07:18:29.935Z,94778.45
2018-11-26T07:20:59.998Z,94778.89
2018-11-26T07:23:31.009Z,94779.02
2018-11-26T07:26:00.720Z,94777.29
2018-11-26T07:28:30.791Z,94780.49
2018-11-26T07:31:04.927Z,94779.80
2018-11-26T07:33:34.892Z,94779.48
2018-11-26T07:36:11.191Z,94783.16
2018-11-26T07:38:35.808Z,94785.45
2018-11-26T07:41:08.699Z,94789.52
2018-11-26T07:43:38.807Z,94788.34
2018-11-26T07:46:12.683Z,94790.42
2018-11-26T07:48:45.849Z,94788.14
2018-11-26T07:51:16.244Z,94790.19
2018-11-26T07:53:46.590Z,94792.85
2018-11-26T07:56:19.824Z,94790.77
2018-11-26T07:58:50.284Z,94798.26
2018-11-26T08:01:20.956Z,94797.47
2018-11-26T08:03:50.996Z,94795.03
2018-11-26T08:06:20.913Z,94790.56
2018-11-26T08:08:52.051Z,94802.77
2018-11-26T08:11:21.933Z,94802.64
2018-11-26T08:13:53.004Z,94801.84
2018-11-26T08:16:22.927Z,94801.59
2018-11-26T08:18:53.580Z,94807.37
2018-11-26T08:21:24.107Z,94806.47
2018-11-26T08:23:54.483Z,94817.28
2018-11-26T08:26:25.268Z,94819.73
2018-11-26T08:28:55.220Z,94823.41
2018-11-26T08:31:26.299Z,94823.53
2018-11-26T08:33:56.079Z,94825.58
2018-11-26T08:36:31.180Z,94823.16
2018-11-26T08:39:09.196Z,94824.88
2018-11-26T08:41:43.364Z,94828.60
2018-11-26T08:44:17.968Z,94833.76
2018-11-26T08:46:52.312Z,94832.04
2018-11-26T08:49:26.628Z,94835.02
2018-11-26T08:51:56.095Z,94836.64
2018-11-26T08:54:26.313Z,94847.37
2018-11-26T08:56:57.211Z,94841.36
2018-11-26T08:59:26.592Z,94847.02
2018-11-26T09:02:02.759Z,94845.87
2018-11-26T09:04:43.518Z,94850.04
2018-11-26T09:07:14.162Z,94848.41
2018-11-26T09:09:44.317Z,94854.30
2018-11-26T09:12:14.292Z,94850.04
2018-11-26T09:14:45.332Z,94845.17
2018-11-26T09:17:14.708Z,94851.19
2018-11-26T09:19:49.348Z,94850.61
2018-11-26T09:22:25.288Z,94854.64
2018-11-26T09:24:56.427Z,94860.05
2018-11-26T09:27:26.847Z,94855.21
2018-11-26T09:29:56.265Z,94849.19
2018-11-26T09:32:27.500Z,94857.39
2018-11-26T09:34:57.397Z,94856.13
2018-11-26T09:37:28.400Z,94861.08
2018-11-26T09:39:58.292Z,94855.52
2018-11-26T09:42:33.191Z,94857.48
2018-11-26T09:45:05.027Z,94858.20
2018-11-26T09:47:38.169Z,94860.24
2018-11-26T09:50:11.218Z,94860.73
2018-11-26T09:52:51.225Z,94854.72
2018-11-26T09:55:21.132Z,94853.76
2018-11-26T09:57:52.827Z,94854.08
2018-11-26T10:00:23.636Z,94854.63
2018-11-26T10:02:53.683Z,94856.47
2018-11-26T10:05:25.560Z,94858.97
2018-11-26T10:07:54.955Z,94855.02
2018-11-26T10:10:25.391Z,94858.75
2018-11-26T10:12:55.734Z,94857.66
2018-11-26T10:15:27.028Z,94777.91
2018-11-26T10:17:56.525Z,94852.59
2018-11-26T10:20:26.557Z,94861.05
2018-11-26T10:22:57.517Z,94864.89
2018-11-26T10:25:28.277Z,94864.09
2018-11-26T10:27:58.520Z,94868.12
2018-11-26T10:30:29.228Z,94866.84
2018-11-26T10:33:06.368Z,94863.48
2018-11-26T10:35:38.656Z,94859.73
2018-11-26T10:38:09.583Z,94866.50
2018-11-26T10:40:39.875Z,94866.09
2018-11-26T10:43:11.731Z,94861.28
2018-11-26T10:45:40.683Z,94859.02
2018-11-26T10:48:11.564Z,94860.23
2018-11-26T10:50:41.700Z,94863.13
2018-11-26T10:53:11.875Z,94858.02
2018-11-26T10:55:42.755Z,94867.09
2018-11-26T10:58:12.750Z,94862.95
2018-11-26T11:00:48.912Z,94865.16
2018-11-26T11:03:23.351Z,94861.53
2018-11-26T11:06:00.641Z,94858.84
2018-11-26T11:08:32.792Z,94860.11
2018-11-26T11:11:06.739Z,94862.53
2018-11-26T11:13:36.817Z,94858.03
2018-11-26T11:16:07.856Z,94859.69
2018-11-26T11:18:41.815Z,94855.05
2018-11-26T11:21:12.580Z,94852.62
2018-11-26T11:23:50.839Z,94856.09
2018-11-26T11:26:23.067Z,94852.62
2018-11-26T11:28:54.777Z,94854.45
2018-11-26T11:31:25.647Z,94856.77
2018-11-26T11:33:58.845Z,94859.29
2018-11-26T11:36:29.973Z,94847.58
2018-11-26T11:38:59.892Z,94849.23
2018-11-26T11:41:34.330Z,94852.26
2018-11-26T11:44:01.364Z,94852.23
2018-11-26T11:46:31.981Z,94850.99
2018-11-26T11:52:02.215Z,94849.13
2018-11-26T11:54:35.770Z,94846.55
2018-11-26T11:57:12.981Z,94842.95
2018-11-26T11:59:43.917Z,94846.48
2018-11-26T12:02:16.104Z,94839.88
2018-11-26T12:04:45.057Z,94843.80
2018-11-26T12:07:14.509Z,94841.59
2018-11-26T12:09:45.959Z,94840.47
2018-11-26T12:12:23.006Z,94844.92
2018-11-26T12:14:54.031Z,94841.80
2018-11-26T12:17:25.969Z,94847.02
2018-11-26T12:19:57.858Z,94842.14
2018-11-26T12:22:30.986Z,94849.18
2018-11-26T12:25:02.265Z,94846.59
2018-11-26T12:27:32.329Z,94846.32
2018-11-26T12:30:03.254Z,94851.32
2018-11-26T12:32:33.110Z,94851.41
2018-11-26T12:35:04.272Z,94851.97
2018-11-26T12:37:34.209Z,94851.41
2018-11-26T12:40:08.315Z,94856.03
2018-11-26T12:42:39.405Z,94851.64
2018-11-26T12:45:15.345Z,94847.62
2018-11-26T12:47:46.243Z,94850.14
2018-11-26T12:50:17.708Z,94846.36
2018-11-26T12:52:47.331Z,94848.83
2018-11-26T12:55:19.607Z,94848.66
2018-11-26T12:57:55.280Z,94853.06
2018-11-26T13:00:26.463Z,94850.64
2018-11-26T13:03:03.919Z,94851.66
2018-11-26T13:05:35.278Z,94849.88
2018-11-26T13:08:06.736Z,94847.36
2018-11-26T13:10:37.756Z,94854.73
2018-11-26T13:13:08.545Z,94845.38
2018-11-26T13:15:38.450Z,94856.22
2018-11-26T13:18:09.412Z,94849.90
2018-11-26T13:20:39.332Z,94858.23
2018-11-26T13:23:10.696Z,94855.55
2018-11-26T13:25:42.186Z,94855.44
2018-11-26T13:28:11.299Z,94858.63
2018-11-26T13:30:45.411Z,94855.78
2018-11-26T13:33:16.255Z,94861.09
2018-11-26T13:35:51.501Z,94866.14
2018-11-26T13:38:28.257Z,94863.41
2018-11-26T13:41:01.582Z,94870.22
2018-11-26T13:43:33.149Z,94875.55
2018-11-26T13:46:06.477Z,94876.69
2018-11-26T13:48:36.512Z,94877.59
2018-11-26T13:51:07.580Z,94877.31
2018-11-26T13:53:38.992Z,94878.91
2018-11-26T13:56:08.560Z,94888.69
2018-11-26T13:58:42.375Z,94891.45
2018-11-26T14:01:13.532Z,94890.14
2018-11-26T14:03:43.510Z,94895.53
2018-11-26T14:06:14.446Z,94901.67
2018-11-26T14:08:45.657Z,94896.62
2018-11-26T14:11:15.000Z,94895.91
2018-11-26T14:13:46.689Z,94898.91
2018-11-26T14:16:23.720Z,94901.11
2018-11-26T14:18:56.476Z,94904.86
2018-11-26T14:21:26.530Z,94906.78
2018-11-26T14:24:05.925Z,94898.72
2018-11-26T14:26:36.057Z,94900.59
2018-11-26T14:29:06.229Z,94903.33
2018-11-26T14:31:36.817Z,94909.11
2018-11-26T14:34:10.073Z,94916.69
2018-11-26T14:36:40.761Z,94911.19
2018-11-26T14:39:10.653Z,94913.81
2018-11-26T14:41:41.621Z,94912.11
2018-11-26T14:44:11.718Z,94916.64
2018-11-26T14:46:42.762Z,94920.20
2018-11-26T14:49:14.363Z,94914.72
2018-11-26T14:51:45.308Z,94923.46
2018-11-26T14:54:15.109Z,94921.91
2018-11-26T14:56:45.369Z,94926.09
2018-11-26T14:59:15.878Z,94927.72
2018-11-26T15:01:51.869Z,94933.19
2018-11-26T15:04:24.849Z,94929.18
2018-11-26T15:06:56.760Z,94931.36
2018-11-26T15:09:27.982Z,94936.88
2018-11-26T15:11:58.025Z,94935.86
2018-11-26T15:14:30.519Z,94944.92
2018-11-26T15:17:02.978Z,94950.42
2018-11-26T15:19:32.957Z,94950.93
2018-11-26T15:22:06.497Z,94951.39
2018-11-26T15:24:46.663Z,94952.92
2018-11-26T15:27:17.965Z,94951.94
2018-11-26T15:29:48.153Z,94955.98
2018-11-26T15:32:18.020Z,94958.47
2018-11-26T15:34:53.837Z,94963.06
2018-11-26T15:37:24.315Z,94968.70
2018-11-26T15:39:58.434Z,94968.94
2018-11-26T15:42:29.078Z,94966.69
2018-11-26T15:45:06.995Z,94968.20
2018-11-26T15:47:36.381Z,94972.74
2018-11-26T15:50:07.665Z,94970.77
2018-11-26T15:52:37.039Z,94977.42
2018-11-26T15:55:09.955Z,94973.02
2018-11-26T15:57:44.032Z,94974.89
2018-11-26T16:00:16.899Z,94975.30
2018-11-26T16:02:51.317Z,94978.31
2018-11-26T16:05:30.734Z,94982.38
2018-11-26T16:08:06.714Z,94984.28
2018-11-26T16:10:38.453Z,94987.63
2018-11-26T16:13:09.231Z,94995.90
2018-11-26T16:15:43.546Z,94999.07
2018-11-26T16:18:22.282Z,94993.16
2018-11-26T16:20:58.089Z,94989.64
2018-11-26T16:23:32.064Z,94991.69
2018-11-26T16:26:03.221Z,94992.25
2018-11-26T16:28:33.293Z,94990.67
2018-11-26T16:31:04.396Z,94993.16
2018-11-26T16:33:38.274Z,94993.51
2018-11-26T16:36:08.376Z,94998.40
2018-11-26T16:38:39.157Z,95005.40
2018-11-26T16:41:10.285Z,95000.89
2018-11-26T16:43:41.472Z,95002.32
2018-11-26T16:46:12.353Z,95003.48
2018-11-26T16:48:46.173Z,95006.22
2018-11-26T16:51:15.541Z,95011.24
2018-11-26T16:53:47.181Z,95012.73
2018-11-26T16:56:24.265Z,95015.61
2018-11-26T16:58:54.353Z,95021.08
2018-11-26T17:01:24.457Z,95019.98
2018-11-26T17:03:55.760Z,95023.84
2018-11-26T17:06:25.465Z,95024.09
2018-11-26T17:08:57.294Z,95022.79
2018-11-26T17:11:34.346Z,95025.45
2018-11-26T17:14:06.677Z,95025.94
2018-11-26T17:16:36.378Z,95030.10
2018-11-26T17:19:08.766Z,95025.49
2018-11-26T17:21:38.254Z,95026.61
2018-11-26T17:24:11.833Z,95023.61
2018-11-26T17:26:42.400Z,95030.30
2018-11-26T17:29:14.577Z,95031.20
2018-11-26T17:31:46.662Z,95029.66
2018-11-26T17:34:18.624Z,95035.33
2018-11-26T17:36:53.441Z,95033.08
2018-11-26T17:39:26.914Z,95039.59
2018-11-26T17:41:58.700Z,95038.02
2018-11-26T17:44:29.074Z,95043.08
2018-11-26T17:46:59.580Z,95039.59
2018-11-26T17:49:30.628Z,95048.72
2018-11-26T17:52:01.532Z,95046.91
2018-11-26T17:54:32.823Z,95050.84
2018-11-26T17:57:02.790Z,95057.40
2018-11-26T17:59:33.469Z,95053.27
2018-11-26T18:02:04.177Z,95054.32
2018-11-26T18:04:37.433Z,95063.81
2018-11-26T18:07:07.773Z,95062.00
2018-11-26T18:09:39.945Z,95068.70
2018-11-26T18:12:11.661Z,95073.30
2018-11-26T18:14:42.792Z,95075.73
2018-11-26T18:17:12.652Z,95075.88
2018-11-26T18:19:43.689Z,95078.69
2018-11-26T18:22:13.787Z,95080.51
2018-11-26T18:24:45.826Z,95082.39
2018-11-26T18:27:15.265Z,95086.28
2018-11-26T18:29:46.199Z,95083.31
2018-11-26T18:32:15.613Z,95086.81
2018-11-26T18:34:47.344Z,95091.13
2018-11-26T18:37:17.914Z,95096.90
2018-11-26T18:39:47.831Z,95094.27
2018-11-26T18:42:18.766Z,95090.25
2018-11-26T18:44:55.405Z,95095.67
2018-11-26T18:47:27.292Z,95099.34
2018-11-26T18:49:58.830Z,95103.13
2018-11-26T18:52:30.182Z,95105.20
2018-11-26T18:55:01.036Z,95105.73
2018-11-26T18:57:31.137Z,95114.58
2018-11-26T19:00:01.847Z,95112.14
2018-11-26T19:02:32.800Z,95108.99
2018-11-26T19:05:08.275Z,95105.34
2018-11-26T19:07:39.975Z,95110.70
2018-11-26T19:10:16.972Z,95111.06
2018-11-26T19:12:51.681Z,95115.22
2018-11-26T19:15:23.433Z,95120.08
2018-11-26T19:17:57.313Z,95118.92
2018-11-26T19:20:29.161Z,95115.84
2018-11-26T19:22:59.098Z,95122.87
2018-11-26T19:25:31.034Z,95127.45
2018-11-26T19:28:12.564Z,95125.57
2018-11-26T19:30:43.318Z,95124.67
2018-11-26T19:33:15.063Z,95129.33
2018-11-26T19:35:55.579Z,95129.63
2018-11-26T19:38:26.509Z,95129.20
2018-11-26T19:40:56.736Z,95132.98
2018-11-26T19:43:27.115Z,95130.61
2018-11-26T19:45:58.026Z,95133.95
2018-11-26T19:48:28.574Z,95135.95
2018-11-26T19:50:59.094Z,95142.61
2018-11-26T19:53:30.180Z,95147.23
2018-11-26T19:56:01.077Z,95149.21
2018-11-26T19:58:38.992Z,95158.52
2018-11-26T20:01:11.121Z,95163.33
2018-11-26T20:03:46.829Z,95164.02
2018-11-26T20:06:22.362Z,95163.84
2018-11-26T20:08:58.003Z,95165.37
2018-11-26T20:11:33.962Z,95166.00
2018-11-26T20:14:04.402Z,95166.91
2018-11-26T20:16:38.985Z,95170.59
2018-11-26T20:19:11.213Z,95177.65
2018-11-26T20:21:42.334Z,95177.67
2018-11-26T20:24:13.365Z,95179.48
2018-11-26T20:26:44.462Z,95184.73
2018-11-26T20:29:15.141Z,95180.61
2018-11-26T20:31:48.033Z,95185.09
2018-11-26T20:34:18.257Z,95191.50
2018-11-26T20:36:49.309Z,95190.03
2018-11-26T20:39:25.441Z,95192.47
2018-11-26T20:41:56.441Z,95203.20
2018-11-26T20:44:27.578Z,95199.89
2018-11-26T20:46:57.373Z,95205.25
2018-11-26T20:49:28.190Z,95209.20
2018-11-26T20:52:02.297Z,95202.25
2018-11-26T20:54:35.049Z,95212.64
2018-11-26T20:57:06.880Z,95213.42
2018-11-26T20:59:37.708Z,95218.47
2018-11-26T21:02:10.372Z,95222.17
2018-11-26T21:04:41.893Z,95224.89
2018-11-26T21:07:13.635Z,95218.03
2018-11-26T21:09:44.564Z,95224.89
2018-11-26T21:12:14.777Z,95212.44
2018-11-26T21:14:45.611Z,95219.30
2018-11-26T21:17:15.679Z,95219.64
2018-11-26T21:19:49.799Z,95224.16
2018-11-26T21:22:15.983Z,95229.06
2018-11-26T21:24:48.159Z,95228.15
2018-11-26T21:27:18.627Z,95227.52
2018-11-26T21:29:48.689Z,95228.77
2018-11-26T21:32:18.797Z,95228.33
2018-11-26T21:34:52.133Z,95238.25
2018-11-26T21:37:21.599Z,95229.95
2018-11-26T21:39:54.757Z,95232.58
2018-11-26T21:42:24.709Z,95234.31
2018-11-26T21:44:55.770Z,95239.70
2018-11-26T21:47:26.939Z,95239.33
2018-11-26T21:49:57.417Z,95237.53
2018-11-26T21:52:36.664Z,95234.91
2018-11-26T21:55:16.417Z,95236.02
2018-11-26T21:57:51.223Z,95243.95
2018-11-26T22:00:26.913Z,95243.56
2018-11-26T22:02:58.364Z,95241.50
2018-11-26T22:05:29.945Z,95243.94
2018-11-26T22:08:02.502Z,95247.83
2018-11-26T22:10:36.725Z,95245.11
2018-11-26T22:13:10.114Z,95248.61
2018-11-26T22:15:41.884Z,95249.81
2018-11-26T22:18:13.757Z,95251.87
2018-11-26T22:20:43.893Z,95263.53
2018-11-26T22:23:14.729Z,95256.20
2018-11-26T22:25:44.859Z,95264.80
2018-11-26T22:28:18.593Z,95261.34
2018-11-26T22:30:49.893Z,95267.67
2018-11-26T22:33:21.972Z,95273.11
2018-11-26T22:35:52.924Z,95276.27
2018-11-26T22:38:24.803Z,95279.05
2018-11-26T22:40:54.937Z,95285.75
2018-11-26T22:43:25.814Z,95282.84
2018-11-26T22:45:56.781Z,95282.84
2018-11-26T22:48:27.209Z,95288.09
2018-11-26T22:50:57.909Z,95288.38
2018-11-26T22:53:28.949Z,95289.16
2018-11-26T22:55:58.958Z,95290.52
2018-11-26T22:58:30.222Z,95291.09
2018-11-26T23:01:01.191Z,95300.09
2018-11-26T23:03:32.796Z,95295.58
2018-11-26T23:06:06.239Z,95297.75
2018-11-26T23:08:35.942Z,95291.53
2018-11-26T23:11:07.929Z,95299.45
2018-11-26T23:13:40.064Z,95295.04
2018-11-26T23:16:13.909Z,95293.87
2018-11-26T23:18:44.156Z,95302.27
2018-11-26T23:21:15.145Z,95297.85
2018-11-26T23:23:44.956Z,95298.66
2018-11-26T23:26:15.153Z,95298.02
2018-11-26T23:28:47.093Z,95304.52
2018-11-26T23:31:19.159Z,95305.42
2018-11-26T23:33:51.112Z,95306.95
2018-11-26T23:36:24.937Z,95308.41
2018-11-26T23:38:55.929Z,95308.14
2018-11-26T23:41:26.049Z,95314.27
2018-11-26T23:43:56.981Z,95317.87
2018-11-26T23:46:33.096Z,95317.88
2018-11-26T23:49:07.344Z,95317.16
2018-11-26T23:51:38.204Z,95315.73
2018-11-26T23:54:08.249Z,95310.67
2018-11-26T23:56:39.180Z,95324.73
